createdAt,value
2018-02-08T00:00:33.711Z,32.53
2018-02-08T00:03:01.498Z,39.73
2018-02-08T00:05:29.015Z,35.70
2018-02-08T00:07:56.531Z,29.37
2018-02-08T00:10:24.159Z,32.87
2018-02-08T00:12:51.942Z,33.20
2018-02-08T00:15:19.579Z,32.70
2018-02-08T00:17:47.403Z,41.70
2018-02-08T00:20:15.238Z,32.97
2018-02-08T00:22:45.449Z,37.53
2018-02-08T00:25:12.958Z,34.47
2018-02-08T00:27:40.483Z,38.07
2018-02-08T00:30:08.043Z,41.23
2018-02-08T00:32:35.564Z,32.73
2018-02-08T00:35:03.080Z,32.40
2018-02-08T00:37:30.603Z,35.00
2018-02-08T00:39:58.266Z,36.70
2018-02-08T00:42:25.791Z,34.37
2018-02-08T00:44:53.790Z,31.40
2018-02-08T00:47:21.555Z,35.77
2018-02-08T00:49:49.091Z,30.40
2018-02-08T00:52:16.603Z,34.93
2018-02-08T00:54:45.152Z,32.73
2018-02-08T00:57:12.671Z,34.10
2018-02-08T00:59:40.346Z,42.90
2018-02-08T01:02:07.895Z,32.30
2018-02-08T01:04:35.586Z,32.50
2018-02-08T01:07:03.127Z,35.20
2018-02-08T01:09:30.642Z,32.90
2018-02-08T01:11:59.193Z,36.07
2018-02-08T01:14:26.723Z,39.53
2018-02-08T01:16:54.239Z,33.70
2018-02-08T01:19:22.788Z,28.77
2018-02-08T01:21:50.303Z,33.53
2018-02-08T01:24:17.818Z,42.27
2018-02-08T01:26:45.384Z,37.30
2018-02-08T01:29:13.101Z,38.07
2018-02-08T01:31:40.682Z,35.57
2018-02-08T01:34:08.473Z,34.60
2018-02-08T01:36:35.943Z,34.53
2018-02-08T01:39:03.462Z,38.13
2018-02-08T01:41:31.090Z,35.13
2018-02-08T01:43:58.611Z,33.93
2018-02-08T01:46:26.350Z,37.70
2018-02-08T01:48:54.688Z,37.33
2018-02-08T01:51:22.480Z,36.20
2018-02-08T01:53:50.020Z,34.10
2018-02-08T01:56:17.703Z,31.10
2018-02-08T01:58:45.210Z,34.10
2018-02-08T02:01:12.728Z,27.93
2018-02-08T02:03:40.235Z,45.73
2018-02-08T02:06:07.804Z,32.53
2018-02-08T02:08:35.390Z,33.97
2018-02-08T02:11:03.087Z,40.97
2018-02-08T02:13:30.598Z,37.93
2018-02-08T02:15:58.114Z,47.50
2018-02-08T02:18:26.390Z,35.90
2018-02-08T02:20:53.905Z,39.77
2018-02-08T02:23:21.563Z,37.70
2018-02-08T02:25:49.099Z,38.27
2018-02-08T02:28:16.964Z,34.70
2018-02-08T02:30:44.523Z,36.40
2018-02-08T02:33:12.034Z,42.13
2018-02-08T02:35:39.558Z,34.03
2018-02-08T02:38:07.251Z,37.77
2018-02-08T02:40:34.988Z,39.07
2018-02-08T02:43:02.509Z,42.10
2018-02-08T02:45:30.021Z,38.60
2018-02-08T02:47:57.552Z,32.40
2018-02-08T02:50:25.105Z,37.37
2018-02-08T02:52:52.602Z,40.47
2018-02-08T02:55:20.895Z,35.67
2018-02-08T02:57:48.406Z,28.70
2018-02-08T03:00:16.050Z,45.27
2018-02-08T03:02:43.631Z,35.90
2018-02-08T03:05:11.166Z,39.00
2018-02-08T03:07:38.867Z,33.60
2018-02-08T03:10:06.385Z,35.37
2018-02-08T03:12:33.903Z,32.90
2018-02-08T03:15:01.411Z,30.27
2018-02-08T03:17:28.996Z,32.40
2018-02-08T03:19:56.748Z,33.43
2018-02-08T03:22:24.511Z,33.90
2018-02-08T03:24:52.791Z,30.50
2018-02-08T03:27:20.343Z,33.53
2018-02-08T03:29:47.866Z,35.53
2018-02-08T03:32:15.379Z,36.30
2018-02-08T03:34:43.012Z,41.87
2018-02-08T03:37:10.529Z,32.87
2018-02-08T03:39:38.244Z,36.00
2018-02-08T03:42:05.763Z,33.03
2018-02-08T03:44:33.336Z,35.20
2018-02-08T03:47:01.424Z,34.67
2018-02-08T03:49:29.041Z,28.83
2018-02-08T03:51:56.756Z,27.80
2018-02-08T03:54:24.526Z,32.03
2018-02-08T03:56:52.057Z,32.20
2018-02-08T03:59:19.714Z,32.27
2018-02-08T04:01:47.516Z,31.70
2018-02-08T04:04:15.279Z,32.00
2018-02-08T04:06:42.810Z,36.60
2018-02-08T04:09:10.500Z,33.57
2018-02-08T04:11:38.266Z,32.87
2018-02-08T04:14:06.017Z,34.77
2018-02-08T04:16:33.534Z,37.77
2018-02-08T04:19:01.274Z,37.90
2018-02-08T04:21:29.587Z,33.50
2018-02-08T04:23:57.118Z,36.13
2018-02-08T04:26:24.662Z,32.33
2018-02-08T04:28:52.939Z,33.70
2018-02-08T04:31:20.671Z,31.50
2018-02-08T04:33:48.199Z,38.63
2018-02-08T04:36:15.860Z,38.30
2018-02-08T04:38:55.300Z,37.63
2018-02-08T04:41:34.759Z,40.83
2018-02-08T04:44:17.116Z,33.83
2018-02-08T04:46:56.397Z,33.40
2018-02-08T04:49:23.915Z,39.27
2018-02-08T04:51:52.047Z,32.53
2018-02-08T04:54:19.867Z,36.10
2018-02-08T04:56:47.360Z,35.53
2018-02-08T04:59:14.906Z,41.43
2018-02-08T05:01:42.423Z,33.60
2018-02-08T05:04:10.126Z,33.47
2018-02-08T05:06:37.894Z,45.27
2018-02-08T05:09:05.655Z,34.80
2018-02-08T05:11:33.163Z,33.87
2018-02-08T05:14:00.679Z,31.90
2018-02-08T05:16:28.186Z,41.00
2018-02-08T05:18:55.711Z,29.37
2018-02-08T05:21:23.228Z,34.90
2018-02-08T05:23:50.747Z,34.20
2018-02-08T05:26:18.319Z,34.27
2018-02-08T05:28:45.831Z,38.30
2018-02-08T05:31:13.350Z,38.13
2018-02-08T05:33:41.114Z,32.30
2018-02-08T05:36:08.735Z,41.83
2018-02-08T05:38:37.284Z,42.20
2018-02-08T05:41:04.827Z,45.70
2018-02-08T05:43:32.499Z,35.70
2018-02-08T05:46:00.049Z,33.30
2018-02-08T05:48:27.902Z,34.73
2018-02-08T05:50:55.490Z,33.20
2018-02-08T05:53:23.003Z,31.00
2018-02-08T05:55:50.690Z,35.70
2018-02-08T05:58:18.470Z,35.83
2018-02-08T06:00:45.986Z,44.90
2018-02-08T06:03:13.494Z,33.30
2018-02-08T06:05:41.020Z,34.60
2018-02-08T06:08:08.911Z,35.77
2018-02-08T06:10:36.435Z,37.93
2018-02-08T06:13:04.057Z,43.10
2018-02-08T06:15:31.577Z,31.00
2018-02-08T06:17:59.590Z,73.40
2018-02-08T06:20:27.214Z,197.03
2018-02-08T06:22:54.853Z,47.73
2018-02-08T06:25:22.584Z,42.83
2018-02-08T06:27:50.112Z,44.63
2018-02-08T06:30:18.147Z,37.70
2018-02-08T06:32:45.654Z,41.97
2018-02-08T06:35:13.175Z,44.70
2018-02-08T06:37:40.704Z,38.83
2018-02-08T06:40:08.227Z,39.20
2018-02-08T06:42:36.511Z,40.23
2018-02-08T06:45:05.011Z,94.10
2018-02-08T06:47:32.539Z,49.57
2018-02-08T06:50:00.051Z,43.37
2018-02-08T06:52:27.567Z,46.80
2018-02-08T06:54:55.839Z,38.83
2018-02-08T06:57:23.558Z,39.07
2018-02-08T06:59:51.503Z,40.07
2018-02-08T07:02:19.072Z,39.30
2018-02-08T07:04:46.595Z,42.50
2018-02-08T07:07:14.800Z,39.97
2018-02-08T07:09:42.404Z,39.83
2018-02-08T07:12:10.147Z,43.70
2018-02-08T07:14:37.651Z,39.30
2018-02-08T07:17:05.963Z,43.33
2018-02-08T07:19:33.742Z,39.63
2018-02-08T07:22:01.525Z,40.43
2018-02-08T07:24:29.044Z,40.73
2018-02-08T07:26:56.563Z,55.23
2018-02-08T07:29:26.398Z,35.73
2018-02-08T07:31:54.179Z,38.97
2018-02-08T07:34:21.674Z,38.50
2018-02-08T07:36:49.323Z,40.20
2018-02-08T07:39:17.093Z,65.77
2018-02-08T07:41:44.864Z,45.13
2018-02-08T07:44:12.379Z,46.30
2018-02-08T07:46:39.894Z,44.07
2018-02-08T07:49:08.443Z,41.63
2018-02-08T07:51:36.080Z,38.80
2018-02-08T07:54:03.619Z,43.07
2018-02-08T07:56:31.752Z,41.60
2018-02-08T07:58:59.283Z,43.50
2018-02-08T08:01:26.795Z,38.33
2018-02-08T08:03:55.102Z,36.87
2018-02-08T08:06:22.788Z,41.47
2018-02-08T08:08:50.308Z,41.00
2018-02-08T08:11:18.007Z,37.07
2018-02-08T08:13:45.534Z,37.70
2018-02-08T08:16:13.043Z,44.13
2018-02-08T08:18:40.682Z,43.70
2018-02-08T08:21:08.209Z,45.07
2018-02-08T08:23:35.727Z,40.57
2018-02-08T08:26:04.282Z,35.10
2018-02-08T08:28:31.804Z,37.40
2018-02-08T08:30:59.322Z,43.77
2018-02-08T08:33:26.835Z,39.63
2018-02-08T08:35:54.352Z,42.03
2018-02-08T08:38:21.866Z,47.40
2018-02-08T08:40:49.384Z,45.40
2018-02-08T08:43:17.096Z,50.97
2018-02-08T08:45:44.854Z,38.43
2018-02-08T08:48:12.374Z,43.90
2018-02-08T08:50:40.099Z,42.30
2018-02-08T08:53:07.902Z,40.80
2018-02-08T08:55:35.618Z,38.10
2018-02-08T08:58:03.344Z,58.17
2018-02-08T09:00:31.131Z,40.57
2018-02-08T09:02:58.891Z,42.33
2018-02-08T09:05:26.416Z,40.10
2018-02-08T09:07:54.123Z,35.70
2018-02-08T09:10:21.651Z,43.73
2018-02-08T09:12:49.379Z,35.27
2018-02-08T09:15:17.110Z,39.87
2018-02-08T09:17:44.630Z,45.00
2018-02-08T09:20:12.161Z,49.63
2018-02-08T09:22:40.451Z,41.27
2018-02-08T09:25:07.956Z,36.60
2018-02-08T09:27:35.479Z,44.97
2018-02-08T09:30:03.067Z,58.13
2018-02-08T09:32:30.827Z,42.13
2018-02-08T09:34:58.340Z,38.30
2018-02-08T09:37:26.168Z,43.90
2018-02-08T09:39:53.811Z,41.50
2018-02-08T09:42:21.332Z,43.70
2018-02-08T09:44:49.039Z,39.50
2018-02-08T09:47:16.554Z,40.80
2018-02-08T09:49:44.075Z,51.63
2018-02-08T09:52:11.714Z,41.80
2018-02-08T09:54:39.471Z,58.80
2018-02-08T09:57:07.256Z,36.67
2018-02-08T09:59:34.743Z,44.17
2018-02-08T10:02:02.459Z,43.40
2018-02-08T10:04:30.227Z,40.50
2018-02-08T10:06:57.752Z,47.70
2018-02-08T10:09:25.437Z,46.80
2018-02-08T10:11:53.201Z,40.13
2018-02-08T10:14:20.720Z,46.07
2018-02-08T10:16:48.233Z,48.43
2018-02-08T10:19:15.840Z,55.63
2018-02-08T10:21:43.363Z,35.47
2018-02-08T10:24:10.870Z,35.20
2018-02-08T10:26:38.567Z,41.17
2018-02-08T10:29:06.320Z,39.70
2018-02-08T10:31:33.824Z,47.70
2018-02-08T10:34:02.083Z,41.90
2018-02-08T10:36:29.615Z,42.03
2018-02-08T10:38:57.128Z,45.87
2018-02-08T10:41:24.644Z,41.13
2018-02-08T10:43:52.259Z,41.37
2018-02-08T10:46:19.763Z,40.33
2018-02-08T10:48:48.787Z,41.13
2018-02-08T10:51:16.314Z,64.57
2018-02-08T10:53:43.918Z,49.37
2018-02-08T10:56:11.643Z,39.33
2018-02-08T10:58:40.314Z,44.20
2018-02-08T11:01:07.815Z,46.63
2018-02-08T11:03:35.345Z,56.10
2018-02-08T11:06:02.844Z,39.53
2018-02-08T11:08:30.363Z,38.07
2018-02-08T11:10:57.878Z,54.60
2018-02-08T11:13:25.554Z,45.83
2018-02-08T11:15:53.059Z,41.23
2018-02-08T11:18:21.600Z,48.30
2018-02-08T11:20:49.355Z,44.10
2018-02-08T11:23:16.855Z,43.43
2018-02-08T11:25:44.352Z,45.77
2018-02-08T11:28:12.209Z,39.47
2018-02-08T11:30:39.771Z,43.97
2018-02-08T11:33:07.267Z,44.40
2018-02-08T11:35:36.548Z,50.10
2018-02-08T11:38:04.049Z,46.87
2018-02-08T11:40:31.789Z,49.40
2018-02-08T11:42:59.305Z,46.40
2018-02-08T11:45:26.825Z,47.77
2018-02-08T11:47:54.443Z,50.80
2018-02-08T11:50:21.950Z,43.03
2018-02-08T11:52:49.506Z,51.40
2018-02-08T11:55:18.655Z,54.93
2018-02-08T11:57:46.205Z,53.83
2018-02-08T12:00:13.882Z,46.63
2018-02-08T12:02:41.394Z,42.67
2018-02-08T12:05:08.916Z,43.70
2018-02-08T12:07:36.771Z,49.27
2018-02-08T12:10:04.328Z,49.33
2018-02-08T12:12:32.090Z,49.60
2018-02-08T12:14:59.850Z,49.97
2018-02-08T12:17:27.348Z,50.10
2018-02-08T12:19:55.069Z,52.43
2018-02-08T12:22:22.842Z,55.50
2018-02-08T12:24:50.409Z,52.03
2018-02-08T12:27:18.051Z,52.70
2018-02-08T12:29:45.822Z,55.37
2018-02-08T12:32:13.320Z,65.50
2018-02-08T12:34:41.033Z,47.37
2018-02-08T12:37:08.548Z,57.83
2018-02-08T12:39:36.040Z,54.93
2018-02-08T12:42:03.582Z,53.27
2018-02-08T12:44:31.087Z,52.93
2018-02-08T12:46:58.599Z,60.77
2018-02-08T12:49:26.106Z,51.53
2018-02-08T12:51:53.861Z,49.83
2018-02-08T12:54:22.983Z,59.30
2018-02-08T12:56:51.271Z,61.87
2018-02-08T12:59:18.981Z,57.37
2018-02-08T13:01:46.496Z,59.03
2018-02-08T13:04:14.198Z,60.00
2018-02-08T13:06:41.717Z,58.33
2018-02-08T13:09:09.415Z,53.80
2018-02-08T13:11:36.924Z,55.70
2018-02-08T13:14:04.624Z,71.27
2018-02-08T13:16:32.399Z,55.60
2018-02-08T13:19:00.165Z,60.63
2018-02-08T13:21:27.972Z,72.83
2018-02-08T13:23:55.687Z,59.00
2018-02-08T13:26:23.451Z,76.47
2018-02-08T13:28:50.950Z,63.40
2018-02-08T13:31:25.298Z,74.57
2018-02-08T13:33:52.834Z,73.27
2018-02-08T13:36:20.357Z,69.70
2018-02-08T13:38:47.841Z,73.73
2018-02-08T13:41:15.352Z,65.13
2018-02-08T13:43:42.846Z,73.53
2018-02-08T13:46:10.351Z,67.97
2018-02-08T13:48:37.964Z,63.73
2018-02-08T13:51:10.280Z,74.97
2018-02-08T13:53:38.317Z,63.87
2018-02-08T13:59:33.495Z,77.23
2018-02-08T14:02:03.547Z,72.50
2018-02-08T14:04:31.179Z,71.33
2018-02-08T14:06:58.938Z,80.13
2018-02-08T14:09:26.888Z,85.07
2018-02-08T14:11:54.390Z,74.97
2018-02-08T14:14:21.939Z,73.00
2018-02-08T14:16:49.693Z,80.07
2018-02-08T14:19:17.453Z,79.57
2018-02-08T14:21:45.220Z,80.10
2018-02-08T14:24:12.956Z,72.57
2018-02-08T14:26:40.438Z,72.83
2018-02-08T14:29:07.939Z,77.93
2018-02-08T14:31:35.654Z,80.67
2018-02-08T14:34:03.420Z,74.67
2018-02-08T14:36:30.919Z,75.40
2018-02-08T14:38:58.638Z,85.10
2018-02-08T14:41:26.404Z,65.20
2018-02-08T14:43:54.162Z,81.50
2018-02-08T14:46:21.870Z,84.87
2018-02-08T14:48:49.382Z,90.40
2018-02-08T14:51:17.148Z,79.00
2018-02-08T14:53:44.927Z,83.53
2018-02-08T14:56:12.435Z,84.57
2018-02-08T14:58:40.089Z,83.17
2018-02-08T15:01:07.617Z,74.33
2018-02-08T15:03:36.624Z,79.73
2018-02-08T15:06:04.347Z,90.37
2018-02-08T15:08:31.861Z,82.20
2018-02-08T15:10:59.563Z,91.53
2018-02-08T15:13:27.203Z,95.50
2018-02-08T15:15:54.709Z,82.33
2018-02-08T15:18:22.212Z,72.77
2018-02-08T15:20:49.720Z,78.47
2018-02-08T15:23:17.232Z,84.83
2018-02-08T15:25:44.731Z,78.47
2018-02-08T15:28:12.237Z,80.10
2018-02-08T15:30:39.746Z,75.40
2018-02-08T15:33:07.470Z,87.70
2018-02-08T15:35:35.047Z,92.73
2018-02-08T15:38:02.816Z,78.60
2018-02-08T15:40:30.328Z,86.73
2018-02-08T15:42:57.839Z,88.13
2018-02-08T15:45:25.462Z,84.43
2018-02-08T15:47:52.967Z,85.80
2018-02-08T15:50:21.991Z,79.50
2018-02-08T15:52:49.505Z,79.00
2018-02-08T15:55:17.083Z,76.10
2018-02-08T15:57:44.591Z,84.77
2018-02-08T16:00:12.379Z,78.13
2018-02-08T16:02:39.879Z,74.90
2018-02-08T16:05:08.065Z,90.53
2018-02-08T16:07:36.331Z,85.53
2018-02-08T16:10:03.863Z,93.10
2018-02-08T16:12:31.431Z,77.73
2018-02-08T16:14:58.943Z,85.53
2018-02-08T16:17:26.443Z,100.47
2018-02-08T16:19:53.956Z,82.10
2018-02-08T16:22:21.615Z,100.90
2018-02-08T16:24:49.123Z,86.53
2018-02-08T16:27:16.859Z,92.07
2018-02-08T16:29:44.370Z,88.17
2018-02-08T16:32:12.778Z,81.27
2018-02-08T16:34:40.295Z,90.67
2018-02-08T16:37:08.639Z,86.17
2018-02-08T16:39:36.267Z,89.57
2018-02-08T16:42:03.758Z,86.37
2018-02-08T16:44:31.516Z,90.27
2018-02-08T16:46:59.457Z,85.73
2018-02-08T16:49:27.005Z,86.17
2018-02-08T16:51:54.507Z,91.63
2018-02-08T16:54:22.254Z,101.37
2018-02-08T16:56:49.816Z,81.67
2018-02-08T16:59:17.294Z,80.30
2018-02-08T17:01:44.935Z,91.03
2018-02-08T17:04:12.443Z,88.03
2018-02-08T17:06:40.132Z,81.17
2018-02-08T17:09:07.641Z,82.60
2018-02-08T17:11:35.146Z,87.47
2018-02-08T17:14:02.877Z,78.10
2018-02-08T17:16:30.645Z,96.40
2018-02-08T17:18:58.359Z,76.77
2018-02-08T17:21:26.097Z,88.17
2018-02-08T17:23:53.587Z,86.37
2018-02-08T17:26:21.111Z,83.60
2018-02-08T17:28:48.755Z,84.03
2018-02-08T17:31:16.252Z,76.40
2018-02-08T17:33:44.016Z,77.40
2018-02-08T17:36:11.525Z,84.50
2018-02-08T17:38:39.029Z,85.30
2018-02-08T17:41:06.549Z,101.43
2018-02-08T17:43:34.588Z,81.27
2018-02-08T17:46:02.095Z,91.30
2018-02-08T17:48:29.754Z,92.43
2018-02-08T17:50:57.288Z,90.07
2018-02-08T17:53:25.628Z,100.47
2018-02-08T17:55:53.121Z,86.23
2018-02-08T17:58:21.646Z,87.67
2018-02-08T18:00:49.155Z,82.53
2018-02-08T18:03:16.661Z,89.23
2018-02-08T18:05:44.166Z,92.97
2018-02-08T18:08:12.447Z,86.00
2018-02-08T18:10:40.159Z,83.03
2018-02-08T18:13:07.679Z,93.63
2018-02-08T18:15:35.349Z,95.20
2018-02-08T18:18:03.168Z,85.23
2018-02-08T18:20:30.673Z,96.37
2018-02-08T18:22:58.173Z,79.20
2018-02-08T18:25:25.799Z,82.83
2018-02-08T18:27:53.899Z,82.20
2018-02-08T18:30:21.399Z,88.13
2018-02-08T18:32:49.114Z,87.10
2018-02-08T18:35:16.647Z,91.63
2018-02-08T18:37:44.591Z,78.63
2018-02-08T18:40:12.110Z,84.87
2018-02-08T18:42:39.694Z,91.10
2018-02-08T18:45:08.203Z,84.67
2018-02-08T18:47:35.980Z,81.93
2018-02-08T18:50:03.484Z,79.13
2018-02-08T18:52:31.234Z,75.37
2018-02-08T18:54:58.740Z,84.83
2018-02-08T18:57:26.248Z,86.67
2018-02-08T18:59:53.927Z,84.43
2018-02-08T19:02:21.437Z,86.70
2018-02-08T19:04:48.959Z,86.13
2018-02-08T19:07:17.332Z,79.10
2018-02-08T19:09:45.611Z,76.83
2018-02-08T19:12:13.350Z,82.07
2018-02-08T19:14:41.101Z,83.07
2018-02-08T19:17:08.603Z,78.33
2018-02-08T19:19:36.331Z,84.63
2018-02-08T19:22:05.346Z,85.30
2018-02-08T19:24:33.062Z,84.70
2018-02-08T19:27:00.849Z,84.20
2018-02-08T19:29:28.356Z,79.50
2018-02-08T19:31:55.886Z,88.10
2018-02-08T19:34:23.516Z,88.00
2018-02-08T19:36:51.026Z,82.97
2018-02-08T19:39:18.622Z,97.37
2018-02-08T19:41:46.189Z,84.93
2018-02-08T19:44:14.303Z,84.07
2018-02-08T19:46:41.817Z,89.73
2018-02-08T19:49:09.480Z,90.77
2018-02-08T19:51:37.246Z,89.10
2018-02-08T19:54:04.763Z,96.47
2018-02-08T19:56:32.295Z,80.00
2018-02-08T19:58:59.796Z,89.97
2018-02-08T20:01:28.175Z,84.53
2018-02-08T20:03:55.687Z,90.30
2018-02-08T20:06:24.131Z,74.60
2018-02-08T20:08:51.769Z,86.20
2018-02-08T20:11:19.281Z,86.57
2018-02-08T20:13:46.782Z,105.57
2018-02-08T20:16:14.312Z,84.07
2018-02-08T20:18:41.840Z,84.00
2018-02-08T20:21:09.415Z,82.60
2018-02-08T20:23:36.871Z,86.40
2018-02-08T20:26:05.150Z,86.60
2018-02-08T20:28:33.500Z,76.27
2018-02-08T20:31:16.818Z,86.03
2018-02-08T20:33:44.846Z,85.13
2018-02-08T20:36:12.356Z,81.03
2018-02-08T20:38:39.862Z,79.63
2018-02-08T20:41:07.570Z,86.90
2018-02-08T20:43:35.116Z,89.73
2018-02-08T20:46:02.760Z,96.60
2018-02-08T20:48:30.279Z,90.23
2018-02-08T20:50:57.978Z,86.93
2018-02-08T20:53:25.813Z,78.90
2018-02-08T20:55:53.563Z,75.33
2018-02-08T20:58:21.071Z,82.67
2018-02-08T21:00:50.291Z,86.83
2018-02-08T21:03:17.811Z,79.23
2018-02-08T21:05:45.442Z,90.70
2018-02-08T21:08:12.952Z,83.50
2018-02-08T21:10:40.457Z,88.67
2018-02-08T21:13:07.971Z,81.00
2018-02-08T21:15:35.944Z,88.17
2018-02-08T21:18:03.502Z,85.43
2018-02-08T21:20:31.010Z,93.17
2018-02-08T21:22:59.547Z,96.70
2018-02-08T21:25:27.082Z,83.00
2018-02-08T21:27:54.994Z,93.93
2018-02-08T21:30:22.560Z,89.83
2018-02-08T21:32:50.320Z,86.93
2018-02-08T21:35:17.814Z,91.33
2018-02-08T21:37:45.320Z,89.33
2018-02-08T21:40:12.939Z,86.93
2018-02-08T21:42:40.739Z,96.57
2018-02-08T21:45:08.267Z,95.67
2018-02-08T21:47:35.782Z,94.40
2018-02-08T21:50:03.306Z,92.77
2018-02-08T21:52:30.850Z,105.50
2018-02-08T21:54:58.356Z,97.90
2018-02-08T21:57:25.885Z,99.30
2018-02-08T21:59:53.547Z,100.83
2018-02-08T22:02:21.311Z,102.00
2018-02-08T22:04:48.827Z,92.77
2018-02-08T22:07:16.502Z,104.00
2018-02-08T22:09:44.030Z,91.57
2018-02-08T22:12:11.534Z,110.13
2018-02-08T22:14:39.270Z,96.63
2018-02-08T22:17:06.719Z,89.57
2018-02-08T22:19:34.392Z,96.67
2018-02-08T22:22:01.911Z,93.20
2018-02-08T22:24:29.662Z,99.27
2018-02-08T22:26:57.280Z,95.50
2018-02-08T22:29:25.512Z,100.07
2018-02-08T22:31:53.028Z,108.20
2018-02-08T22:34:20.546Z,104.90
2018-02-08T22:36:48.058Z,105.57
2018-02-08T22:39:15.574Z,99.93
2018-02-08T22:41:43.098Z,115.10
2018-02-08T22:44:10.604Z,97.57
2018-02-08T22:46:38.267Z,104.57
2018-02-08T22:49:06.050Z,94.83
2018-02-08T22:51:33.580Z,103.77
2018-02-08T22:54:01.601Z,103.07
2018-02-08T22:56:29.221Z,107.63
2018-02-08T22:58:56.814Z,119.30
2018-02-08T23:01:24.344Z,112.83
2018-02-08T23:03:52.307Z,104.07
2018-02-08T23:06:19.812Z,119.40
2018-02-08T23:08:48.831Z,102.90
2018-02-08T23:11:16.400Z,120.87
2018-02-08T23:13:43.903Z,103.10
2018-02-08T23:16:11.456Z,101.90
2018-02-08T23:18:38.962Z,108.27
2018-02-08T23:21:06.671Z,90.50
2018-02-08T23:23:34.312Z,111.83
2018-02-08T23:26:01.916Z,99.83
2018-02-08T23:28:30.202Z,108.70
2018-02-08T23:30:57.727Z,98.87
2018-02-08T23:33:25.261Z,104.57
2018-02-08T23:35:53.180Z,119.23
2018-02-08T23:38:20.706Z,98.23
2018-02-08T23:40:48.221Z,101.20
2018-02-08T23:43:15.907Z,92.63
2018-02-08T23:45:43.704Z,104.20
2018-02-08T23:48:11.230Z,116.13
2018-02-08T23:50:38.919Z,101.20
2018-02-08T23:53:06.442Z,100.57
2018-02-08T23:55:34.108Z,99.27
2018-02-08T23:58:01.633Z,100.03
